This is the latest recevied weather packets stored in our database for station/object OE-11204. If no packets are shown the sender has not sent any weather packets the latest 10 day(s).
| Time | Temp. | Humidity | Pressure | Rain* | Wind** | Luminosity | Snow |
|---|---|---|---|---|---|---|---|
| 1787769688 | 22.78° C | 64% | 1014.8 hPa | 0 mm | - | 0 W/m² | - |
| 1787769315 | 23.89° C | 59% | 1014.5 hPa | 0 mm | - | 0 W/m² | - |
| 1787768715 | 23.89° C | 59% | 1014.2 hPa | 0 mm | - | 0 W/m² | - |
| 1787767889 | 24.44° C | 56% | 1014.1 hPa | 0 mm | - | 6 W/m² | - |
| 1787767515 | 24.44° C | 56% | 1013.9 hPa | 0 mm | - | 6 W/m² | - |
| 1787766915 | 25° C | 54% | 1013.7 hPa | 0 mm | - | 12 W/m² | - |
| 1787766088 | 25° C | 54% | 1013.7 hPa | 0 mm | - | 25 W/m² | - |
| 1787765715 | 25° C | 56% | 1013.6 hPa | 0 mm | - | 37 W/m² | - |
| 1787765114 | 25.56° C | 54% | 1013.5 hPa | 0 mm | - | 43 W/m² | - |
| 1787764288 | 25.56° C | 53% | 1013.3 hPa | 0 mm | - | 62 W/m² | - |
| 1787763915 | 25.56° C | 52% | 1013.2 hPa | 0 mm | - | 74 W/m² | - |
| 1787763314 | 25.56° C | 52% | 1013.1 hPa | 0 mm | - | 99 W/m² | - |
| 1787762488 | 25.56° C | 54% | 1012.9 hPa | 0 mm | - | 99 W/m² | - |
| 1787762115 | 26.11° C | 52% | 1012.9 hPa | 0 mm | - | 124 W/m² | - |
| 1787761515 | 26.11° C | 52% | 1012.8 hPa | 0 mm | - | 173 W/m² | - |
| 1787760688 | 26.11° C | 53% | 1012.9 hPa | 0 mm | - | 130 W/m² | - |
| 1787760315 | 26.67° C | 51% | 1012.6 hPa | 0 mm | - | 111 W/m² | - |
| 1787759715 | 26.67° C | 49% | 1012.5 hPa | 0 mm | - | 186 W/m² | - |
| 1787758888 | 26.67° C | 48% | 1012.5 hPa | 0 mm | - | 74 W/m² | - |
| 1787758514 | 27.78° C | 46% | 1012.3 hPa | 0 mm | - | 105 W/m² | - |
| 1787757915 | 28.33° C | 45% | 1012.1 hPa | 0 mm | - | 415 W/m² | - |
| 1787757088 | 28.33° C | 45% | 1012.1 hPa | 0 mm | - | 501 W/m² | - |
| 1787756715 | 28.33° C | 45% | 1012.4 hPa | 0 mm | - | 365 W/m² | - |
| 1787756115 | 28.33° C | 44% | 1012.3 hPa | 0 mm | - | 415 W/m² | - |
| 1787755288 | 28.33° C | 45% | 1012.3 hPa | 0 mm | - | 309 W/m² | - |
* Rain latest hour (hover to see other rain measurements)
** Current wind speed in m/s (hover to see current wind gust speed)